createdAt,value
2017-08-06T00:00:25.289Z,67.81
2017-08-06T00:01:22.560Z,67.80
2017-08-06T00:02:19.800Z,67.79
2017-08-06T00:03:17.080Z,67.78
2017-08-06T00:04:14.310Z,67.79
2017-08-06T00:05:11.577Z,67.80
2017-08-06T00:06:08.801Z,67.76
2017-08-06T00:07:06.061Z,67.77
2017-08-06T00:08:03.284Z,67.79
2017-08-06T00:09:00.583Z,67.80
2017-08-06T00:09:57.855Z,67.80
2017-08-06T00:10:55.112Z,67.78
2017-08-06T00:11:52.350Z,67.79
2017-08-06T00:12:49.616Z,67.82
2017-08-06T00:13:46.876Z,67.80
2017-08-06T00:14:44.121Z,67.82
2017-08-06T00:15:41.359Z,67.84
2017-08-06T00:16:38.728Z,67.85
2017-08-06T00:17:35.970Z,67.83
2017-08-06T00:18:33.248Z,67.85
2017-08-06T00:19:30.504Z,67.87
2017-08-06T00:20:27.761Z,67.83
2017-08-06T00:21:24.996Z,67.83
2017-08-06T00:22:22.289Z,67.86
2017-08-06T00:23:19.531Z,67.82
2017-08-06T00:24:16.884Z,67.86
2017-08-06T00:25:14.125Z,67.86
2017-08-06T00:26:11.383Z,67.86
2017-08-06T00:27:08.632Z,67.86
2017-08-06T00:28:05.897Z,67.87
2017-08-06T00:29:03.140Z,67.85
2017-08-06T00:30:00.409Z,67.86
2017-08-06T00:30:57.653Z,67.88
2017-08-06T00:31:54.924Z,67.90
2017-08-06T00:32:52.156Z,67.91
2017-08-06T00:33:49.400Z,67.91
2017-08-06T00:34:46.649Z,67.91
2017-08-06T00:35:43.900Z,67.89
2017-08-06T00:36:41.135Z,67.88
2017-08-06T00:37:38.397Z,67.89
2017-08-06T00:38:35.637Z,67.94
2017-08-06T00:39:32.911Z,67.94
2017-08-06T00:40:30.133Z,67.98
2017-08-06T00:41:27.411Z,67.96
2017-08-06T00:42:24.656Z,67.98
2017-08-06T00:43:21.928Z,67.98
2017-08-06T00:44:19.181Z,67.97
2017-08-06T00:45:16.431Z,67.97
2017-08-06T00:46:13.672Z,67.99
2017-08-06T00:47:10.931Z,67.99
2017-08-06T00:48:08.181Z,67.99
2017-08-06T00:49:05.445Z,68.01
2017-08-06T00:50:02.692Z,68.03
2017-08-06T00:50:59.943Z,68.03
2017-08-06T00:51:57.177Z,68.02
2017-08-06T00:52:54.438Z,68.04
2017-08-06T00:53:51.673Z,68.03
2017-08-06T00:54:48.956Z,68.03
2017-08-06T00:55:46.185Z,68.02
2017-08-06T00:56:43.447Z,68.01
2017-08-06T00:57:40.656Z,68.02
2017-08-06T00:58:37.944Z,68.04
2017-08-06T00:59:35.205Z,68.03
2017-08-06T01:00:32.472Z,68.04
2017-08-06T01:01:29.731Z,68.04
2017-08-06T01:02:27.025Z,68.01
2017-08-06T01:03:24.268Z,68.02
2017-08-06T01:04:21.525Z,68.01
2017-08-06T01:05:18.784Z,68.01
2017-08-06T01:06:16.032Z,68.02
2017-08-06T01:07:13.269Z,68.01
2017-08-06T01:08:10.513Z,68.02
2017-08-06T01:09:07.752Z,68.05
2017-08-06T01:10:05.016Z,68.06
2017-08-06T01:11:02.244Z,68.06
2017-08-06T01:11:59.496Z,68.06
2017-08-06T01:12:56.716Z,68.08
2017-08-06T01:13:53.981Z,68.08
2017-08-06T01:14:51.228Z,68.10
2017-08-06T01:15:48.528Z,68.13
2017-08-06T01:16:45.765Z,68.12
2017-08-06T01:17:43.008Z,68.12
2017-08-06T01:18:40.252Z,68.12
2017-08-06T01:19:37.506Z,68.13
2017-08-06T01:20:34.757Z,68.14
2017-08-06T01:21:32.016Z,68.11
2017-08-06T01:22:29.236Z,68.14
2017-08-06T01:23:26.480Z,68.15
2017-08-06T01:24:23.699Z,68.14
2017-08-06T01:25:20.980Z,68.15
2017-08-06T01:26:18.204Z,68.15
2017-08-06T01:27:15.445Z,68.16
2017-08-06T01:28:12.669Z,68.15
2017-08-06T01:29:09.936Z,68.14
2017-08-06T01:30:07.159Z,68.11
2017-08-06T01:31:04.445Z,68.12
2017-08-06T01:32:01.741Z,68.11
2017-08-06T01:32:59.149Z,68.11
2017-08-06T01:33:56.376Z,68.12
2017-08-06T01:34:53.729Z,68.13
2017-08-06T01:35:51.076Z,68.13
2017-08-06T01:36:48.335Z,68.14
2017-08-06T01:37:45.552Z,68.13
2017-08-06T01:38:42.932Z,68.12
2017-08-06T01:39:40.500Z,68.13
2017-08-06T01:40:37.775Z,68.16
2017-08-06T01:41:34.989Z,68.15
2017-08-06T01:42:32.248Z,68.15
2017-08-06T01:43:29.477Z,68.14
2017-08-06T01:44:26.740Z,68.14
2017-08-06T01:45:23.987Z,68.13
2017-08-06T01:46:21.256Z,68.14
2017-08-06T01:47:18.477Z,68.14
2017-08-06T01:48:15.721Z,68.13
2017-08-06T01:49:12.944Z,68.17
2017-08-06T01:50:10.196Z,68.16
2017-08-06T01:51:07.433Z,68.16
2017-08-06T01:52:04.678Z,68.17
2017-08-06T01:53:01.903Z,68.16
2017-08-06T01:53:59.168Z,68.16
2017-08-06T01:54:56.425Z,68.15
2017-08-06T01:55:53.701Z,68.16
2017-08-06T01:56:50.929Z,68.16
2017-08-06T01:57:48.174Z,68.16
2017-08-06T01:58:45.401Z,68.14
2017-08-06T01:59:42.644Z,68.14
2017-08-06T02:00:39.887Z,68.14
2017-08-06T02:01:37.144Z,68.13
2017-08-06T02:02:34.359Z,68.13
2017-08-06T02:03:31.625Z,68.15
2017-08-06T02:04:28.852Z,68.13
2017-08-06T02:05:26.112Z,68.11
2017-08-06T02:06:23.381Z,68.11
2017-08-06T02:07:20.644Z,68.10
2017-08-06T02:08:17.868Z,68.10
2017-08-06T02:09:15.134Z,68.09
2017-08-06T02:10:12.368Z,68.11
2017-08-06T02:11:09.629Z,68.09
2017-08-06T02:12:06.852Z,68.09
2017-08-06T02:13:04.114Z,68.09
2017-08-06T02:14:01.357Z,68.09
2017-08-06T02:14:58.608Z,68.08
2017-08-06T02:15:55.833Z,68.11
2017-08-06T02:16:53.111Z,68.09
2017-08-06T02:17:50.351Z,68.10
2017-08-06T02:18:47.604Z,68.12
2017-08-06T02:19:44.837Z,68.12
2017-08-06T02:20:42.191Z,68.15
2017-08-06T02:21:39.424Z,68.14
2017-08-06T02:22:37.069Z,68.15
2017-08-06T02:23:34.296Z,68.18
2017-08-06T02:24:31.540Z,68.15
2017-08-06T02:25:28.773Z,68.15
2017-08-06T02:26:26.032Z,68.15
2017-08-06T02:27:23.288Z,68.16
2017-08-06T02:28:20.577Z,68.15
2017-08-06T02:29:17.826Z,68.13
2017-08-06T02:30:15.090Z,68.15
2017-08-06T02:31:12.432Z,68.15
2017-08-06T02:32:09.706Z,68.14
2017-08-06T02:33:06.929Z,68.15
2017-08-06T02:34:04.189Z,68.17
2017-08-06T02:35:01.472Z,68.17
2017-08-06T02:35:58.738Z,68.17
2017-08-06T02:36:55.993Z,68.17
2017-08-06T02:37:53.250Z,68.17
2017-08-06T02:38:50.488Z,68.18
2017-08-06T02:39:47.736Z,68.19
2017-08-06T02:40:44.972Z,68.19
2017-08-06T02:41:42.220Z,68.16
2017-08-06T02:42:39.461Z,68.19
2017-08-06T02:43:36.705Z,68.18
2017-08-06T02:44:33.929Z,68.18
2017-08-06T02:45:31.193Z,68.19
2017-08-06T02:46:28.427Z,68.17
2017-08-06T02:47:25.695Z,68.20
2017-08-06T02:48:22.932Z,68.21
2017-08-06T02:49:20.183Z,68.19
2017-08-06T02:50:17.417Z,68.21
2017-08-06T02:51:14.672Z,68.21
2017-08-06T02:52:11.929Z,68.19
2017-08-06T02:53:09.177Z,68.19
2017-08-06T02:54:06.396Z,68.19
2017-08-06T02:55:03.657Z,68.20
2017-08-06T02:56:00.917Z,68.21
2017-08-06T02:56:58.188Z,68.20
2017-08-06T02:57:55.438Z,68.21
2017-08-06T02:58:52.988Z,68.23
2017-08-06T02:59:50.220Z,68.24
2017-08-06T03:00:47.484Z,68.24
2017-08-06T03:01:44.716Z,68.23
2017-08-06T03:02:41.992Z,68.26
2017-08-06T03:03:39.208Z,68.27
2017-08-06T03:04:36.473Z,68.26
2017-08-06T03:05:33.696Z,68.26
2017-08-06T03:06:30.957Z,68.26
2017-08-06T03:07:28.191Z,68.25
2017-08-06T03:08:25.464Z,68.25
2017-08-06T03:09:22.695Z,68.24
2017-08-06T03:10:19.976Z,68.26
2017-08-06T03:11:17.200Z,68.28
2017-08-06T03:12:14.468Z,68.30
2017-08-06T03:13:11.720Z,68.30
2017-08-06T03:14:08.976Z,68.31
2017-08-06T03:15:06.212Z,68.31
2017-08-06T03:16:03.468Z,68.29
2017-08-06T03:17:00.704Z,68.32
2017-08-06T03:17:57.992Z,68.31
2017-08-06T03:18:55.229Z,68.31
2017-08-06T03:19:52.492Z,68.31
2017-08-06T03:20:49.720Z,68.33
2017-08-06T03:21:46.981Z,68.32
2017-08-06T03:22:44.240Z,68.33
2017-08-06T03:23:41.516Z,68.34
2017-08-06T03:24:38.745Z,68.35
2017-08-06T03:25:36.050Z,68.38
2017-08-06T03:26:33.334Z,68.39
2017-08-06T03:27:30.593Z,68.39
2017-08-06T03:28:27.841Z,68.41
2017-08-06T03:29:25.100Z,68.41
2017-08-06T03:30:22.348Z,68.42
2017-08-06T03:31:19.634Z,68.42
2017-08-06T03:32:16.880Z,68.41
2017-08-06T03:33:14.158Z,68.40
2017-08-06T03:34:11.389Z,68.42
2017-08-06T03:35:08.657Z,68.43
2017-08-06T03:36:05.893Z,68.45
2017-08-06T03:37:03.168Z,68.48
2017-08-06T03:38:00.396Z,68.50
2017-08-06T03:38:57.671Z,68.51
2017-08-06T03:39:54.903Z,68.52
2017-08-06T03:40:52.156Z,68.51
2017-08-06T03:41:49.400Z,68.53
2017-08-06T03:42:46.656Z,68.55
2017-08-06T03:43:43.900Z,68.55
2017-08-06T03:44:41.172Z,68.57
2017-08-06T03:45:38.404Z,68.57
2017-08-06T03:46:35.676Z,68.58
2017-08-06T03:47:32.908Z,68.58
2017-08-06T03:48:30.172Z,68.58
2017-08-06T03:49:27.429Z,68.63
2017-08-06T03:50:24.696Z,68.64
2017-08-06T03:51:21.940Z,68.65
2017-08-06T03:52:19.210Z,68.67
2017-08-06T03:53:16.448Z,68.68
2017-08-06T03:54:13.720Z,68.71
2017-08-06T03:55:10.940Z,68.72
2017-08-06T03:56:08.192Z,68.73
2017-08-06T03:57:05.421Z,68.76
2017-08-06T03:58:02.679Z,68.78
2017-08-06T03:58:59.929Z,68.76
2017-08-06T03:59:57.201Z,68.77
2017-08-06T04:00:54.468Z,68.77
2017-08-06T04:01:51.717Z,68.76
2017-08-06T04:02:48.942Z,68.77
2017-08-06T04:03:46.566Z,68.77
2017-08-06T04:04:43.842Z,68.76
2017-08-06T04:05:41.100Z,68.77
2017-08-06T04:06:38.344Z,68.76
2017-08-06T04:07:35.604Z,68.75
2017-08-06T04:08:32.853Z,68.75
2017-08-06T04:09:30.130Z,68.76
2017-08-06T04:10:27.360Z,68.77
2017-08-06T04:11:24.888Z,68.76
2017-08-06T04:12:22.137Z,68.78
2017-08-06T04:13:19.391Z,68.77
2017-08-06T04:14:16.668Z,68.78
2017-08-06T04:15:13.937Z,68.79
2017-08-06T04:16:11.196Z,68.79
2017-08-06T04:17:08.464Z,68.78
2017-08-06T04:18:05.685Z,68.79
2017-08-06T04:19:02.948Z,68.80
2017-08-06T04:20:00.196Z,68.79
2017-08-06T04:20:57.460Z,68.81
2017-08-06T04:21:54.719Z,68.81
2017-08-06T04:22:51.976Z,68.84
2017-08-06T04:23:49.248Z,68.86
2017-08-06T04:24:46.534Z,68.85
2017-08-06T04:25:43.774Z,68.84
2017-08-06T04:26:41.085Z,68.84
2017-08-06T04:27:38.368Z,68.86
2017-08-06T04:28:35.633Z,68.88
2017-08-06T04:29:33.616Z,68.88
2017-08-06T04:30:30.887Z,68.91
2017-08-06T04:31:28.119Z,68.89
2017-08-06T04:32:25.380Z,68.90
2017-08-06T04:33:22.620Z,68.92
2017-08-06T04:34:19.879Z,68.90
2017-08-06T04:35:17.137Z,68.92
2017-08-06T04:36:14.389Z,68.94
2017-08-06T04:37:11.635Z,68.94
2017-08-06T04:38:08.901Z,68.95
2017-08-06T04:39:06.135Z,68.97
2017-08-06T04:40:03.696Z,68.98
2017-08-06T04:41:00.924Z,69.00
2017-08-06T04:41:58.188Z,69.01
2017-08-06T04:42:55.427Z,69.03
2017-08-06T04:43:52.692Z,69.02
2017-08-06T04:44:49.938Z,69.05
2017-08-06T04:45:47.233Z,69.05
2017-08-06T04:46:44.461Z,69.07
2017-08-06T04:47:41.724Z,69.09
2017-08-06T04:48:38.979Z,69.12
2017-08-06T04:49:36.249Z,69.13
2017-08-06T04:50:33.500Z,69.13
2017-08-06T04:51:30.761Z,69.14
2017-08-06T04:52:28.000Z,69.16
2017-08-06T04:53:25.260Z,69.17
2017-08-06T04:54:22.511Z,69.18
2017-08-06T04:55:19.789Z,69.21
2017-08-06T04:56:17.036Z,69.23
2017-08-06T04:57:14.298Z,69.26
2017-08-06T04:58:11.548Z,69.27
2017-08-06T04:59:08.807Z,69.29
2017-08-06T05:00:06.028Z,69.31
2017-08-06T05:01:03.333Z,69.34
2017-08-06T05:02:00.580Z,69.36
2017-08-06T05:02:57.845Z,69.39
2017-08-06T05:03:55.076Z,69.41
2017-08-06T05:04:52.327Z,69.44
2017-08-06T05:05:49.588Z,69.45
2017-08-06T05:06:46.841Z,69.47
2017-08-06T05:07:44.093Z,69.50
2017-08-06T05:08:41.353Z,69.53
2017-08-06T05:09:38.595Z,69.57
2017-08-06T05:10:35.852Z,69.60
2017-08-06T05:11:33.095Z,69.62
2017-08-06T05:12:30.352Z,69.67
2017-08-06T05:13:27.598Z,69.71
2017-08-06T05:14:24.910Z,69.71
2017-08-06T05:15:22.155Z,69.75
2017-08-06T05:16:19.434Z,69.81
2017-08-06T05:17:16.668Z,69.84
2017-08-06T05:18:13.933Z,69.87
2017-08-06T05:19:11.174Z,69.90
2017-08-06T05:20:08.416Z,69.93
2017-08-06T05:21:05.665Z,69.97
2017-08-06T05:22:02.921Z,69.98
2017-08-06T05:23:00.161Z,70.02
2017-08-06T05:23:57.420Z,70.08
2017-08-06T05:24:54.648Z,70.09
2017-08-06T05:25:51.919Z,70.12
2017-08-06T05:26:49.189Z,70.12
2017-08-06T05:27:46.433Z,70.17
2017-08-06T05:28:43.668Z,70.20
2017-08-06T05:29:40.925Z,70.23
2017-08-06T05:30:38.147Z,70.29
2017-08-06T05:31:35.448Z,70.32
2017-08-06T05:32:32.958Z,70.35
2017-08-06T05:33:30.410Z,70.40
2017-08-06T05:34:27.656Z,70.44
2017-08-06T05:35:24.917Z,70.46
2017-08-06T05:36:22.332Z,70.47
2017-08-06T05:37:19.595Z,70.50
2017-08-06T05:38:16.935Z,70.54
2017-08-06T05:39:14.474Z,70.59
2017-08-06T05:40:12.108Z,70.63
2017-08-06T05:41:09.490Z,70.67
2017-08-06T05:42:06.865Z,70.73
2017-08-06T05:43:04.268Z,70.75
2017-08-06T05:44:01.519Z,70.79
2017-08-06T05:44:58.916Z,70.86
2017-08-06T05:45:56.160Z,70.89
2017-08-06T05:46:53.513Z,70.91
2017-08-06T05:47:50.887Z,70.93
2017-08-06T05:48:48.149Z,70.94
2017-08-06T05:49:45.401Z,70.97
2017-08-06T05:50:42.671Z,71.00
2017-08-06T05:51:39.951Z,71.03
2017-08-06T05:52:37.283Z,71.06
2017-08-06T05:53:34.571Z,71.08
2017-08-06T05:54:31.861Z,71.14
2017-08-06T05:55:29.106Z,71.16
2017-08-06T05:56:26.515Z,71.19
2017-08-06T05:57:23.844Z,71.24
2017-08-06T05:58:21.124Z,71.26
2017-08-06T05:59:18.377Z,71.32
2017-08-06T06:00:15.684Z,71.36
2017-08-06T06:01:12.924Z,71.42
2017-08-06T06:02:10.209Z,71.46
2017-08-06T06:03:07.456Z,71.50
2017-08-06T06:04:05.008Z,71.53
2017-08-06T06:05:02.346Z,71.58
2017-08-06T06:05:59.824Z,71.62
2017-08-06T06:06:57.289Z,71.66
2017-08-06T06:07:54.572Z,71.71
2017-08-06T06:08:51.820Z,71.74
2017-08-06T06:09:49.073Z,71.80
2017-08-06T06:10:46.402Z,71.82
2017-08-06T06:11:43.767Z,71.88
2017-08-06T06:12:41.201Z,71.90
2017-08-06T06:13:38.868Z,71.94
2017-08-06T06:14:36.264Z,72.00
2017-08-06T06:15:33.747Z,72.07
2017-08-06T06:16:31.138Z,72.12
2017-08-06T06:17:28.927Z,72.15
2017-08-06T06:18:26.401Z,72.21
2017-08-06T06:19:23.950Z,72.28
2017-08-06T06:20:21.322Z,72.34
2017-08-06T06:21:18.641Z,72.37
2017-08-06T06:22:16.143Z,72.44
2017-08-06T06:23:13.545Z,72.47
2017-08-06T06:24:10.798Z,72.53
2017-08-06T06:25:08.100Z,72.57
2017-08-06T06:26:05.387Z,72.61
2017-08-06T06:27:02.684Z,72.64
2017-08-06T06:27:59.936Z,72.68
2017-08-06T06:28:57.192Z,72.73
2017-08-06T06:29:54.428Z,72.74
2017-08-06T06:30:51.692Z,72.79
2017-08-06T06:31:48.926Z,72.83
2017-08-06T06:32:46.221Z,72.90
2017-08-06T06:33:43.533Z,72.91
2017-08-06T06:34:40.808Z,72.95
2017-08-06T06:35:38.040Z,73.02
2017-08-06T06:36:35.309Z,73.06
2017-08-06T06:37:32.554Z,73.10
2017-08-06T06:38:29.840Z,73.15
2017-08-06T06:39:27.064Z,73.19
2017-08-06T06:40:24.325Z,73.24
2017-08-06T06:41:21.564Z,73.27
2017-08-06T06:42:18.832Z,73.33
2017-08-06T06:43:17.059Z,73.37
2017-08-06T06:44:14.326Z,73.39
2017-08-06T06:45:11.552Z,73.44
2017-08-06T06:46:08.828Z,73.50
2017-08-06T06:47:06.056Z,73.57
2017-08-06T06:48:03.324Z,73.60
2017-08-06T06:49:00.578Z,73.64
2017-08-06T06:49:57.824Z,73.68
2017-08-06T06:50:55.076Z,73.72
2017-08-06T06:51:52.329Z,73.77
2017-08-06T06:52:49.576Z,73.80
2017-08-06T06:53:47.897Z,73.87
2017-08-06T06:54:45.136Z,73.86
2017-08-06T06:55:42.404Z,73.89
2017-08-06T06:56:39.653Z,73.90
2017-08-06T06:57:36.952Z,73.95
2017-08-06T06:58:34.243Z,73.97
2017-08-06T06:59:31.513Z,74.02
2017-08-06T07:00:28.767Z,74.04
2017-08-06T07:01:26.031Z,74.06
2017-08-06T07:02:23.267Z,74.09
2017-08-06T07:03:20.549Z,74.15
2017-08-06T07:04:17.804Z,74.22
2017-08-06T07:05:15.356Z,74.29
2017-08-06T07:06:12.772Z,74.35
2017-08-06T07:07:10.032Z,74.40
2017-08-06T07:08:07.284Z,74.43
2017-08-06T07:09:04.580Z,74.47
2017-08-06T07:10:01.821Z,74.50
2017-08-06T07:10:59.068Z,74.48
2017-08-06T07:11:56.309Z,74.52
2017-08-06T07:12:53.568Z,74.55
2017-08-06T07:13:50.837Z,74.58
2017-08-06T07:14:48.128Z,74.66
2017-08-06T07:15:45.365Z,74.71
2017-08-06T07:16:42.611Z,74.73
2017-08-06T07:17:39.844Z,74.80
2017-08-06T07:18:37.111Z,74.89
2017-08-06T07:19:34.356Z,74.93
2017-08-06T07:20:31.617Z,74.98
2017-08-06T07:21:28.856Z,75.02
2017-08-06T07:22:26.113Z,75.04
2017-08-06T07:23:23.366Z,75.06
2017-08-06T07:24:20.637Z,75.08
2017-08-06T07:25:17.877Z,75.09
2017-08-06T07:26:15.207Z,75.13
2017-08-06T07:27:12.480Z,75.13
2017-08-06T07:28:09.738Z,75.17
2017-08-06T07:29:06.968Z,75.18
2017-08-06T07:30:04.256Z,75.21
2017-08-06T07:31:01.492Z,75.23
2017-08-06T07:31:58.745Z,75.25
2017-08-06T07:32:55.977Z,75.26
2017-08-06T07:33:53.238Z,75.28
2017-08-06T07:34:50.494Z,75.32
2017-08-06T07:35:47.756Z,75.36
2017-08-06T07:36:44.985Z,75.40
2017-08-06T07:37:42.251Z,75.40
2017-08-06T07:38:39.481Z,75.44
2017-08-06T07:39:36.761Z,75.43
2017-08-06T07:40:34.004Z,75.42
2017-08-06T07:41:31.264Z,75.45
2017-08-06T07:42:28.497Z,75.46
2017-08-06T07:43:25.768Z,75.44
2017-08-06T07:44:23.601Z,75.46
2017-08-06T07:45:20.880Z,75.47
2017-08-06T07:46:18.104Z,75.49
2017-08-06T07:47:15.413Z,75.52
2017-08-06T07:48:17.773Z,75.55
2017-08-06T07:49:15.101Z,75.56
2017-08-06T07:50:12.361Z,75.58
2017-08-06T07:51:09.616Z,75.64
2017-08-06T07:52:06.857Z,75.67
2017-08-06T07:53:06.147Z,75.70
2017-08-06T07:54:04.409Z,75.72
2017-08-06T07:55:01.656Z,75.75
2017-08-06T07:55:58.932Z,75.75
2017-08-06T07:56:56.185Z,75.77
2017-08-06T07:57:53.455Z,75.80
2017-08-06T07:58:50.745Z,75.88
2017-08-06T07:59:48.017Z,75.90
2017-08-06T08:00:45.288Z,75.91
2017-08-06T08:01:42.573Z,75.89
2017-08-06T08:02:39.835Z,75.90
2017-08-06T08:03:37.109Z,75.92
2017-08-06T08:04:34.337Z,75.93
2017-08-06T08:05:31.759Z,75.95
2017-08-06T08:06:29.004Z,75.96
2017-08-06T08:07:26.276Z,76.00
2017-08-06T08:08:23.500Z,76.01
2017-08-06T08:09:21.000Z,76.00
2017-08-06T08:10:18.264Z,75.98
2017-08-06T08:11:15.532Z,75.95
2017-08-06T08:12:12.764Z,75.93
2017-08-06T08:13:10.016Z,75.96
2017-08-06T08:14:07.253Z,75.98
2017-08-06T08:15:04.516Z,75.99
2017-08-06T08:16:01.764Z,76.00
2017-08-06T08:16:59.028Z,75.99
2017-08-06T08:17:56.252Z,76.00
2017-08-06T08:18:53.509Z,76.04
2017-08-06T08:19:50.753Z,76.04
2017-08-06T08:20:48.053Z,76.04
2017-08-06T08:21:45.682Z,76.04
2017-08-06T08:22:44.282Z,76.08
2017-08-06T08:23:41.585Z,76.10
2017-08-06T08:24:38.836Z,76.08
2017-08-06T08:25:36.132Z,76.09
2017-08-06T08:26:33.445Z,76.09
2017-08-06T08:27:30.676Z,76.06
2017-08-06T08:28:27.928Z,76.03
2017-08-06T08:29:25.164Z,76.06
2017-08-06T08:30:22.417Z,76.06
2017-08-06T08:31:19.676Z,76.04
2017-08-06T08:32:16.930Z,76.03
2017-08-06T08:33:14.181Z,76.00
2017-08-06T08:34:11.781Z,76.00
2017-08-06T08:35:09.033Z,75.98
2017-08-06T08:36:06.312Z,75.97
2017-08-06T08:37:03.536Z,75.94
2017-08-06T08:38:00.788Z,75.95
2017-08-06T08:38:58.077Z,75.93
2017-08-06T08:39:55.371Z,75.92
2017-08-06T08:40:52.608Z,75.91
2017-08-06T08:41:49.946Z,75.89
2017-08-06T08:42:47.185Z,75.84
2017-08-06T08:43:44.466Z,75.87
2017-08-06T08:44:41.864Z,75.85
2017-08-06T08:45:39.181Z,75.84
2017-08-06T08:46:36.501Z,75.80
2017-08-06T08:47:33.820Z,75.75
2017-08-06T08:48:31.207Z,75.72
2017-08-06T08:49:28.667Z,75.69
2017-08-06T08:50:25.924Z,75.68
2017-08-06T08:51:23.252Z,75.62
2017-08-06T08:52:20.505Z,75.60
2017-08-06T08:53:17.788Z,75.56
2017-08-06T08:54:14.996Z,75.54
2017-08-06T08:55:12.264Z,75.55
2017-08-06T08:56:09.500Z,75.53
2017-08-06T08:57:06.805Z,75.55
2017-08-06T08:58:04.069Z,75.53
2017-08-06T08:59:01.329Z,75.50
2017-08-06T08:59:58.553Z,75.42
2017-08-06T09:00:55.812Z,75.37
2017-08-06T09:01:53.084Z,75.30
2017-08-06T09:02:50.368Z,75.30
2017-08-06T09:03:47.596Z,75.26
2017-08-06T09:04:44.843Z,75.29
2017-08-06T09:05:42.064Z,75.29
2017-08-06T09:06:39.372Z,75.26
2017-08-06T09:07:36.621Z,75.22
2017-08-06T09:08:33.980Z,75.20
2017-08-06T09:09:31.498Z,75.15
2017-08-06T09:10:29.356Z,75.11
2017-08-06T09:11:26.600Z,75.09
2017-08-06T09:12:23.879Z,75.07
2017-08-06T09:13:21.088Z,75.09
2017-08-06T09:14:18.352Z,75.08
2017-08-06T09:15:15.580Z,75.04
2017-08-06T09:16:12.848Z,75.01
2017-08-06T09:17:10.108Z,74.91
2017-08-06T09:18:07.357Z,74.84
2017-08-06T09:19:04.577Z,74.79
2017-08-06T09:20:01.932Z,74.73
2017-08-06T09:20:59.184Z,74.64
2017-08-06T09:21:56.484Z,74.61
2017-08-06T09:22:53.730Z,74.45
2017-08-06T09:23:51.105Z,74.29
2017-08-06T09:24:48.352Z,74.22
2017-08-06T09:25:45.661Z,74.13
2017-08-06T09:26:42.959Z,74.06
2017-08-06T09:27:40.268Z,73.95
2017-08-06T09:28:37.520Z,73.91
2017-08-06T09:29:34.786Z,73.87
2017-08-06T09:30:32.020Z,73.78
2017-08-06T09:31:29.288Z,73.72
2017-08-06T09:32:26.527Z,73.65
2017-08-06T09:33:23.805Z,73.54
2017-08-06T09:34:21.200Z,73.46
2017-08-06T09:35:18.692Z,73.43
2017-08-06T09:36:16.165Z,73.37
2017-08-06T09:37:13.612Z,73.26
2017-08-06T09:38:10.885Z,73.21
2017-08-06T09:39:08.251Z,73.15
2017-08-06T09:40:05.521Z,73.11
2017-08-06T09:41:02.917Z,73.03
2017-08-06T09:42:00.148Z,72.91
2017-08-06T09:42:57.488Z,72.87
2017-08-06T09:43:54.717Z,72.80
2017-08-06T09:44:51.997Z,72.62
2017-08-06T09:45:49.228Z,72.55
2017-08-06T09:46:46.618Z,72.49
2017-08-06T09:47:43.949Z,72.47
2017-08-06T09:48:41.213Z,72.42
2017-08-06T09:49:38.448Z,72.31
2017-08-06T09:50:35.780Z,72.20
2017-08-06T09:51:33.184Z,72.13
2017-08-06T09:52:30.452Z,72.07
2017-08-06T09:53:27.769Z,71.97
2017-08-06T09:54:25.044Z,71.89
2017-08-06T09:55:22.445Z,71.83
2017-08-06T09:56:19.705Z,71.77
2017-08-06T09:57:16.951Z,71.75
2017-08-06T09:58:14.674Z,71.62
2017-08-06T09:59:12.250Z,71.56
2017-08-06T10:00:09.704Z,71.45
2017-08-06T10:01:07.119Z,71.37
2017-08-06T10:02:04.368Z,71.30
2017-08-06T10:03:01.653Z,71.31
2017-08-06T10:03:58.961Z,71.29
2017-08-06T10:04:56.374Z,71.21
2017-08-06T10:05:53.630Z,71.14
2017-08-06T10:06:50.936Z,71.04
2017-08-06T10:07:48.192Z,70.97
2017-08-06T10:08:45.446Z,70.88
2017-08-06T10:09:42.720Z,70.84
2017-08-06T10:10:40.073Z,70.76
2017-08-06T10:11:37.452Z,70.70
2017-08-06T10:12:34.680Z,70.61
2017-08-06T10:13:32.082Z,70.51
2017-08-06T10:14:29.346Z,70.48
2017-08-06T10:15:26.600Z,70.44
2017-08-06T10:16:23.860Z,70.35
2017-08-06T10:17:21.145Z,70.28
2017-08-06T10:18:18.383Z,70.21
2017-08-06T10:19:15.661Z,70.10
2017-08-06T10:20:13.036Z,70.01
2017-08-06T10:21:10.281Z,69.89
2017-08-06T10:22:07.513Z,69.74
2017-08-06T10:23:04.772Z,69.67
2017-08-06T10:24:02.017Z,69.62
2017-08-06T10:24:59.276Z,69.54
2017-08-06T10:25:56.545Z,69.45
2017-08-06T10:26:53.837Z,69.40
2017-08-06T10:27:51.072Z,69.35
2017-08-06T10:28:48.344Z,69.31
2017-08-06T10:29:45.576Z,69.25
2017-08-06T10:30:42.824Z,69.19
2017-08-06T10:31:40.160Z,69.15
2017-08-06T10:32:37.691Z,69.11
2017-08-06T10:33:34.936Z,69.02
2017-08-06T10:34:32.229Z,68.96
2017-08-06T10:35:29.518Z,68.98
2017-08-06T10:36:26.866Z,68.99
2017-08-06T10:37:24.137Z,68.85
2017-08-06T10:38:21.426Z,68.75
2017-08-06T10:39:18.683Z,68.66
2017-08-06T10:40:16.052Z,68.63
2017-08-06T10:41:13.285Z,68.61
2017-08-06T10:42:10.539Z,68.55
2017-08-06T10:43:07.769Z,68.49
2017-08-06T10:44:05.055Z,68.46
2017-08-06T10:45:02.312Z,68.40
2017-08-06T10:45:59.564Z,68.32
2017-08-06T10:46:56.789Z,68.24
2017-08-06T10:47:54.049Z,68.17
2017-08-06T10:48:51.269Z,68.12
2017-08-06T10:49:48.553Z,68.08
2017-08-06T10:50:45.800Z,68.02
2017-08-06T10:51:43.056Z,67.95
2017-08-06T10:52:40.293Z,67.89
2017-08-06T10:53:37.622Z,67.80
2017-08-06T10:54:34.909Z,67.80
2017-08-06T10:55:32.170Z,67.76
2017-08-06T10:56:29.407Z,67.72
2017-08-06T10:57:26.661Z,67.67
2017-08-06T10:58:23.913Z,67.60
2017-08-06T10:59:21.202Z,67.57
2017-08-06T11:00:18.475Z,67.46
2017-08-06T11:01:15.751Z,67.45
2017-08-06T11:02:13.012Z,67.49
2017-08-06T11:03:10.265Z,67.51
2017-08-06T11:04:07.500Z,67.40
2017-08-06T11:05:04.785Z,67.34
2017-08-06T11:06:02.036Z,67.19
2017-08-06T11:06:59.548Z,67.03
2017-08-06T11:07:57.156Z,66.93
2017-08-06T11:08:54.406Z,66.86
2017-08-06T11:09:51.645Z,66.79
2017-08-06T11:10:48.896Z,66.62
2017-08-06T11:11:46.140Z,66.57
2017-08-06T11:12:43.408Z,66.55
2017-08-06T11:13:40.668Z,66.55
2017-08-06T11:14:37.996Z,66.52
2017-08-06T11:15:35.260Z,66.49
2017-08-06T11:16:32.533Z,66.34
2017-08-06T11:17:29.760Z,66.31
2017-08-06T11:18:27.404Z,66.20
2017-08-06T11:19:24.651Z,66.11
2017-08-06T11:20:22.880Z,66.02
2017-08-06T11:21:20.104Z,65.92
2017-08-06T11:22:17.357Z,65.91
2017-08-06T11:23:14.576Z,65.89
2017-08-06T11:24:11.844Z,65.79
2017-08-06T11:25:09.109Z,65.65
2017-08-06T11:26:06.445Z,65.64
2017-08-06T11:27:03.757Z,65.52
2017-08-06T11:28:01.113Z,65.40
2017-08-06T11:28:58.371Z,65.36
2017-08-06T11:29:55.645Z,65.28
2017-08-06T11:30:52.934Z,65.15
2017-08-06T11:31:50.201Z,65.13
2017-08-06T11:32:47.490Z,65.13
2017-08-06T11:33:44.760Z,65.13
2017-08-06T11:34:41.994Z,65.09
2017-08-06T11:35:39.288Z,65.01
2017-08-06T11:36:36.533Z,64.89
2017-08-06T11:37:33.813Z,64.81
2017-08-06T11:38:31.048Z,64.69
2017-08-06T11:39:28.328Z,64.60
2017-08-06T11:40:25.660Z,64.45
2017-08-06T11:41:22.961Z,64.38
2017-08-06T11:42:20.233Z,64.36
2017-08-06T11:43:17.488Z,64.28
2017-08-06T11:44:14.752Z,64.17
2017-08-06T11:45:12.029Z,64.05
2017-08-06T11:46:09.289Z,63.96
2017-08-06T11:47:06.581Z,63.97
2017-08-06T11:48:03.812Z,63.87
2017-08-06T11:49:01.097Z,63.77
2017-08-06T11:49:58.321Z,63.64
2017-08-06T11:50:55.648Z,63.52
2017-08-06T11:51:52.889Z,63.46
2017-08-06T11:52:50.190Z,63.43
2017-08-06T11:53:47.441Z,63.30
2017-08-06T11:54:44.705Z,63.16
2017-08-06T11:55:42.016Z,63.11
2017-08-06T11:56:39.296Z,62.98
2017-08-06T11:57:36.569Z,62.88
2017-08-06T11:58:33.832Z,62.82
2017-08-06T11:59:31.084Z,62.78
2017-08-06T12:00:28.348Z,62.78
2017-08-06T12:01:25.616Z,62.72
2017-08-06T12:02:22.982Z,62.60
2017-08-06T12:03:20.231Z,62.59
2017-08-06T12:04:17.508Z,62.55
2017-08-06T12:05:14.737Z,62.49
2017-08-06T12:06:12.012Z,62.45
2017-08-06T12:07:09.266Z,62.30
2017-08-06T12:08:06.520Z,62.14
2017-08-06T12:09:03.748Z,62.06
2017-08-06T12:10:01.024Z,62.00
2017-08-06T12:10:58.297Z,61.91
2017-08-06T12:11:55.602Z,61.84
2017-08-06T12:12:53.178Z,61.87
2017-08-06T12:13:50.585Z,61.79
2017-08-06T12:14:47.863Z,61.68
2017-08-06T12:15:45.384Z,61.62
2017-08-06T12:16:42.714Z,61.62
2017-08-06T12:17:39.994Z,61.63